Bandar Seri Begawan, Brunei
Current Conditions -  °F | °C
As of 1:30 PM on Monday 22 Dec 2014 (Local Time) from WBSB Reporting Station
Broken Clouds Broken Clouds  
Wind Chill: 86°   Ceiling: 30000
Heat Index: 97°   Visibility: 6mi
Dew Point: 77°   Wind: 9mph
Humidity: 74%   Direction: 340°NNW
Pressure: 29.74"   Gusts: NA
Location:  4.9431°N, 114.9425°E
Report Text: WBSB 220530Z 34008KT 9999 SCT016 BKN300 30/25 Q1007 NOSIG
Loading
Personal Weather Stations






























Interactive Weather Map New forecast layout! Learn more

10-Day Weather Forecast

Advertisements
Track Severe Weather on mobile